createdAt,value
2016-12-15T00:00:55.997Z,8.46
2016-12-15T00:01:55.378Z,8.37
2016-12-15T00:02:55.340Z,8.32
2016-12-15T00:03:55.331Z,8.4
2016-12-15T00:04:55.388Z,8.36
2016-12-15T00:05:55.363Z,8.37
2016-12-15T00:06:55.396Z,8.36
2016-12-15T00:07:55.372Z,8.39
2016-12-15T00:08:55.421Z,8.27
2016-12-15T00:09:55.276Z,8.29
2016-12-15T00:10:55.446Z,8.24
2016-12-15T00:11:55.380Z,8.28
2016-12-15T00:12:55.404Z,8.34
2016-12-15T00:13:55.335Z,8.29
2016-12-15T00:14:55.370Z,8.27
2016-12-15T00:15:55.357Z,8.25
2016-12-15T00:16:56.367Z,8.34
2016-12-15T00:17:55.350Z,8.2
2016-12-15T00:18:55.432Z,8.25
2016-12-15T00:19:55.302Z,8.24
2016-12-15T00:20:55.359Z,8.22
2016-12-15T00:21:55.361Z,8.25
2016-12-15T00:22:55.442Z,8.21
2016-12-15T00:23:55.324Z,8.17
2016-12-15T00:24:55.412Z,8.21
2016-12-15T00:25:55.347Z,8.18
2016-12-15T00:26:55.438Z,8.27
2016-12-15T00:27:55.356Z,8.25
2016-12-15T00:28:55.445Z,8.32
2016-12-15T00:29:55.357Z,8.1
2016-12-15T00:30:55.374Z,8.22
2016-12-15T00:31:55.384Z,8.24
2016-12-15T00:32:55.334Z,8.24
2016-12-15T00:33:55.869Z,8.24
2016-12-15T00:34:55.384Z,8.24
2016-12-15T00:35:55.356Z,8.27
2016-12-15T00:36:55.433Z,8.27
2016-12-15T00:37:55.347Z,8.24
2016-12-15T00:38:55.361Z,8.27
2016-12-15T00:39:55.341Z,8.2
2016-12-15T00:40:55.413Z,8.13
2016-12-15T00:41:55.365Z,8.21
2016-12-15T00:42:55.418Z,8.2
2016-12-15T00:43:55.376Z,8.22
2016-12-15T00:44:55.388Z,8.13
2016-12-15T00:45:55.349Z,8.2
2016-12-15T00:46:55.439Z,8.21
2016-12-15T00:47:55.376Z,8.18
2016-12-15T00:48:55.427Z,8.18
2016-12-15T00:49:55.344Z,8.17
2016-12-15T00:50:55.355Z,8.18
2016-12-15T00:51:55.405Z,8.24
2016-12-15T00:52:55.390Z,8.17
2016-12-15T00:53:55.475Z,8.2
2016-12-15T00:54:55.398Z,8.2
2016-12-15T00:55:55.559Z,8.2
2016-12-15T00:56:55.442Z,8.13
2016-12-15T00:57:55.342Z,8.14
2016-12-15T00:58:55.395Z,8.17
2016-12-15T00:59:55.393Z,8.13
2016-12-15T01:00:55.452Z,8.17
2016-12-15T01:01:55.381Z,8.17
2016-12-15T01:02:55.424Z,8.13
2016-12-15T01:03:55.335Z,8.18
2016-12-15T01:04:55.404Z,8.09
2016-12-15T01:05:55.331Z,8.22
2016-12-15T01:06:55.511Z,8.13
2016-12-15T01:07:55.387Z,8.17
2016-12-15T01:08:55.401Z,8.14
2016-12-15T01:09:55.394Z,8.12
2016-12-15T01:10:55.394Z,8.04
2016-12-15T01:11:55.431Z,8.12
2016-12-15T01:12:55.387Z,8.09
2016-12-15T01:13:55.377Z,8.13
2016-12-15T01:14:55.442Z,8.14
2016-12-15T01:15:55.371Z,8.09
2016-12-15T01:16:55.433Z,8.07
2016-12-15T01:17:55.354Z,8.17
2016-12-15T01:18:55.375Z,8.12
2016-12-15T01:19:55.396Z,8.02
2016-12-15T01:20:55.407Z,8.03
2016-12-15T01:21:55.387Z,7.96
2016-12-15T01:22:55.454Z,8.07
2016-12-15T01:23:55.355Z,8.06
2016-12-15T01:24:55.376Z,8.04
2016-12-15T01:25:55.395Z,8.04
2016-12-15T01:26:55.517Z,8.02
2016-12-15T01:27:55.425Z,7.95
2016-12-15T01:28:55.467Z,7.91
2016-12-15T01:29:55.360Z,7.91
2016-12-15T01:30:55.460Z,8
2016-12-15T01:31:55.367Z,7.95
2016-12-15T01:32:55.426Z,7.96
2016-12-15T01:33:55.413Z,7.89
2016-12-15T01:34:55.381Z,7.86
2016-12-15T01:35:55.416Z,7.86
2016-12-15T01:36:55.485Z,7.89
2016-12-15T01:37:55.395Z,7.95
2016-12-15T01:38:55.417Z,8.02
2016-12-15T01:39:55.406Z,7.91
2016-12-15T01:40:55.435Z,7.95
2016-12-15T01:41:55.404Z,7.89
2016-12-15T01:42:55.419Z,7.91
2016-12-15T01:43:55.395Z,7.91
2016-12-15T01:44:55.385Z,7.88
2016-12-15T01:45:55.360Z,7.91
2016-12-15T01:46:55.429Z,7.96
2016-12-15T01:47:55.444Z,7.91
2016-12-15T01:48:55.408Z,7.86
2016-12-15T01:49:55.433Z,7.91
2016-12-15T01:50:55.412Z,7.86
2016-12-15T01:51:55.427Z,7.95
2016-12-15T01:52:55.410Z,7.89
2016-12-15T01:53:55.418Z,7.88
2016-12-15T01:54:55.443Z,7.91
2016-12-15T01:55:55.397Z,7.92
2016-12-15T01:56:55.460Z,7.89
2016-12-15T01:57:55.364Z,7.86
2016-12-15T01:58:55.417Z,7.91
2016-12-15T01:59:55.425Z,7.94
2016-12-15T02:00:55.391Z,7.84
2016-12-15T02:01:55.583Z,7.81
2016-12-15T02:02:55.411Z,7.85
2016-12-15T02:03:55.440Z,7.81
2016-12-15T02:04:55.451Z,7.86
2016-12-15T02:05:55.446Z,7.91
2016-12-15T02:06:55.404Z,7.82
2016-12-15T02:07:55.413Z,7.84
2016-12-15T02:08:55.447Z,7.85
2016-12-15T02:09:55.435Z,7.82
2016-12-15T02:10:55.453Z,7.85
2016-12-15T02:11:55.473Z,7.86
2016-12-15T02:12:55.475Z,7.85
2016-12-15T02:13:55.502Z,7.81
2016-12-15T02:14:55.461Z,7.85
2016-12-15T02:15:55.440Z,7.82
2016-12-15T02:16:55.482Z,7.85
2016-12-15T02:17:55.421Z,7.82
2016-12-15T02:18:55.440Z,7.84
2016-12-15T02:19:55.447Z,7.88
2016-12-15T02:20:55.546Z,7.85
2016-12-15T02:21:55.481Z,7.82
2016-12-15T02:22:55.493Z,7.85
2016-12-15T02:23:55.458Z,7.88
2016-12-15T02:24:55.463Z,7.76
2016-12-15T02:25:55.443Z,7.88
2016-12-15T02:26:55.493Z,7.77
2016-12-15T02:27:55.465Z,7.85
2016-12-15T02:28:55.488Z,7.81
2016-12-15T02:29:55.425Z,7.79
2016-12-15T02:30:55.407Z,7.86
2016-12-15T02:31:55.518Z,7.85
2016-12-15T02:32:55.475Z,7.82
2016-12-15T02:33:55.507Z,7.74
2016-12-15T02:34:55.480Z,7.7
2016-12-15T02:35:55.439Z,7.84
2016-12-15T02:36:55.532Z,7.73
2016-12-15T02:37:55.427Z,7.74
2016-12-15T02:38:55.506Z,7.76
2016-12-15T02:39:55.466Z,7.71
2016-12-15T02:40:55.483Z,7.77
2016-12-15T02:41:55.580Z,7.88
2016-12-15T02:42:55.454Z,7.82
2016-12-15T02:43:55.453Z,7.79
2016-12-15T02:44:55.477Z,7.82
2016-12-15T02:45:55.499Z,7.85
2016-12-15T02:46:55.471Z,7.86
2016-12-15T02:47:55.512Z,7.82
2016-12-15T02:48:55.488Z,7.88
2016-12-15T02:49:56.119Z,7.76
2016-12-15T02:50:55.517Z,7.79
2016-12-15T02:51:55.507Z,7.89
2016-12-15T02:52:55.489Z,7.86
2016-12-15T02:53:55.453Z,7.85
2016-12-15T02:54:55.543Z,7.88
2016-12-15T02:55:55.547Z,7.88
2016-12-15T02:56:55.543Z,7.88
2016-12-15T02:57:55.478Z,7.76
2016-12-15T02:58:55.475Z,7.86
2016-12-15T02:59:55.456Z,7.84
2016-12-15T03:00:55.486Z,7.85
2016-12-15T03:01:55.715Z,7.77
2016-12-15T03:02:55.480Z,7.86
2016-12-15T03:03:55.488Z,7.84
2016-12-15T03:04:55.445Z,7.74
2016-12-15T03:05:55.513Z,7.74
2016-12-15T03:06:55.565Z,7.86
2016-12-15T03:07:55.535Z,7.76
2016-12-15T03:08:55.517Z,7.82
2016-12-15T03:09:55.471Z,7.81
2016-12-15T03:10:55.550Z,7.88
2016-12-15T03:11:55.697Z,7.84
2016-12-15T03:12:55.474Z,7.82
2016-12-15T03:13:55.466Z,7.79
2016-12-15T03:14:55.511Z,7.86
2016-12-15T03:15:55.512Z,7.89
2016-12-15T03:16:55.585Z,7.81
2016-12-15T03:17:55.531Z,7.91
2016-12-15T03:18:55.581Z,7.92
2016-12-15T03:19:55.471Z,7.82
2016-12-15T03:20:55.568Z,7.79
2016-12-15T03:21:55.779Z,7.81
2016-12-15T03:22:55.645Z,7.81
2016-12-15T03:23:55.496Z,7.85
2016-12-15T03:24:55.567Z,7.84
2016-12-15T03:25:55.698Z,7.86
2016-12-15T03:26:55.547Z,7.82
2016-12-15T03:27:55.585Z,7.81
2016-12-15T03:28:55.512Z,7.85
2016-12-15T03:29:55.562Z,7.73
2016-12-15T03:30:55.505Z,7.86
2016-12-15T03:31:55.572Z,7.79
2016-12-15T03:32:55.583Z,7.89
2016-12-15T03:33:55.550Z,7.85
2016-12-15T03:34:55.545Z,7.81
2016-12-15T03:35:55.512Z,7.89
2016-12-15T03:36:55.552Z,7.82
2016-12-15T03:37:55.483Z,7.77
2016-12-15T03:38:55.584Z,7.7
2016-12-15T03:39:55.535Z,7.82
2016-12-15T03:40:55.519Z,7.84
2016-12-15T03:41:55.543Z,7.81
2016-12-15T03:42:55.601Z,7.76
2016-12-15T03:43:55.544Z,7.86
2016-12-15T03:44:55.554Z,7.88
2016-12-15T03:45:55.678Z,7.81
2016-12-15T03:46:55.582Z,7.86
2016-12-15T03:47:55.520Z,7.88
2016-12-15T03:48:55.571Z,7.82
2016-12-15T03:49:55.567Z,7.85
2016-12-15T03:50:55.545Z,7.86
2016-12-15T03:51:55.536Z,7.81
2016-12-15T03:52:55.567Z,7.89
2016-12-15T03:53:55.731Z,7.92
2016-12-15T03:54:55.616Z,7.76
2016-12-15T03:55:55.568Z,7.76
2016-12-15T03:56:55.588Z,7.85
2016-12-15T03:57:55.570Z,7.84
2016-12-15T03:58:55.563Z,7.86
2016-12-15T03:59:55.548Z,7.85
2016-12-15T04:00:55.549Z,7.76
2016-12-15T04:01:55.692Z,7.86
2016-12-15T04:02:55.552Z,7.82
2016-12-15T04:03:55.727Z,7.85
2016-12-15T04:04:55.577Z,7.82
2016-12-15T04:05:55.532Z,7.89
2016-12-15T04:06:55.533Z,7.86
2016-12-15T04:07:55.694Z,7.88
2016-12-15T04:08:55.533Z,7.77
2016-12-15T04:09:55.548Z,7.88
2016-12-15T04:10:55.561Z,7.82
2016-12-15T04:11:55.621Z,7.89
2016-12-15T04:12:55.574Z,7.82
2016-12-15T04:13:55.555Z,7.74
2016-12-15T04:14:55.570Z,7.76
2016-12-15T04:15:55.688Z,7.79
2016-12-15T04:16:55.543Z,7.77
2016-12-15T04:17:55.529Z,7.77
2016-12-15T04:18:55.605Z,7.74
2016-12-15T04:19:55.535Z,7.79
2016-12-15T04:20:55.556Z,7.77
2016-12-15T04:21:55.639Z,7.76
2016-12-15T04:22:55.545Z,7.79
2016-12-15T04:23:55.560Z,7.86
2016-12-15T04:24:55.587Z,7.77
2016-12-15T04:25:55.585Z,7.76
2016-12-15T04:26:55.584Z,7.77
2016-12-15T04:27:55.543Z,7.74
2016-12-15T04:28:55.592Z,7.74
2016-12-15T04:29:55.571Z,7.79
2016-12-15T04:30:55.537Z,7.74
2016-12-15T04:31:55.759Z,7.82
2016-12-15T04:32:55.615Z,7.91
2016-12-15T04:33:55.526Z,7.86
2016-12-15T04:34:55.633Z,7.85
2016-12-15T04:35:55.643Z,7.74
2016-12-15T04:36:55.578Z,7.88
2016-12-15T04:37:55.715Z,7.74
2016-12-15T04:38:55.603Z,7.82
2016-12-15T04:39:55.782Z,7.84
2016-12-15T04:40:55.581Z,7.86
2016-12-15T04:41:55.604Z,7.82
2016-12-15T04:42:55.569Z,7.77
2016-12-15T04:43:55.737Z,7.82
2016-12-15T04:44:55.612Z,7.88
2016-12-15T04:45:55.591Z,7.82
2016-12-15T04:46:55.664Z,7.81
2016-12-15T04:47:55.701Z,7.77
2016-12-15T04:48:55.633Z,7.86
2016-12-15T04:49:55.710Z,7.84
2016-12-15T04:50:55.615Z,7.86
2016-12-15T04:51:55.790Z,7.84
2016-12-15T04:52:55.572Z,7.81
2016-12-15T04:53:55.609Z,7.85
2016-12-15T04:54:55.606Z,7.85
2016-12-15T04:55:55.638Z,7.81
2016-12-15T04:56:55.621Z,7.85
2016-12-15T04:57:55.664Z,7.84
2016-12-15T04:58:55.622Z,7.82
2016-12-15T04:59:55.689Z,7.79
2016-12-15T05:00:55.609Z,7.88
2016-12-15T05:01:55.755Z,7.91
2016-12-15T05:02:55.705Z,7.86
2016-12-15T05:03:55.672Z,7.88
2016-12-15T05:04:55.639Z,7.88
2016-12-15T05:05:55.655Z,7.79
2016-12-15T05:06:55.705Z,7.85
2016-12-15T05:07:55.633Z,7.84
2016-12-15T05:08:55.544Z,7.92
2016-12-15T05:09:55.638Z,7.89
2016-12-15T05:10:55.663Z,7.94
2016-12-15T05:11:55.801Z,7.92
2016-12-15T05:12:55.628Z,7.84
2016-12-15T05:13:55.632Z,7.91
2016-12-15T05:14:55.626Z,7.91
2016-12-15T05:15:55.663Z,7.91
2016-12-15T05:16:55.674Z,7.91
2016-12-15T05:17:55.685Z,7.89
2016-12-15T05:18:55.674Z,7.94
2016-12-15T05:19:55.686Z,7.95
2016-12-15T05:20:55.643Z,7.94
2016-12-15T05:21:55.829Z,7.94
2016-12-15T05:22:55.610Z,7.94
2016-12-15T05:23:55.861Z,7.89
2016-12-15T05:24:55.684Z,7.92
2016-12-15T05:25:55.689Z,7.85
2016-12-15T05:26:55.699Z,7.91
2016-12-15T05:27:55.635Z,7.92
2016-12-15T05:28:55.705Z,7.91
2016-12-15T05:29:55.683Z,7.94
2016-12-15T05:30:55.700Z,7.91
2016-12-15T05:31:55.819Z,7.86
2016-12-15T05:32:55.784Z,7.91
2016-12-15T05:33:55.645Z,7.91
2016-12-15T05:34:55.654Z,7.86
2016-12-15T05:35:55.816Z,7.86
2016-12-15T05:36:55.617Z,7.86
2016-12-15T05:37:55.648Z,7.89
2016-12-15T05:38:55.661Z,7.94
2016-12-15T05:39:55.806Z,7.86
2016-12-15T05:40:55.670Z,7.92
2016-12-15T05:41:55.733Z,7.94
2016-12-15T05:42:55.736Z,7.89
2016-12-15T05:43:55.775Z,7.91
2016-12-15T05:44:55.648Z,7.92
2016-12-15T05:45:55.742Z,7.88
2016-12-15T05:46:56.645Z,7.95
2016-12-15T05:47:55.792Z,7.89
2016-12-15T05:48:55.638Z,7.91
2016-12-15T05:49:55.671Z,7.92
2016-12-15T05:50:55.662Z,7.88
2016-12-15T05:51:55.811Z,7.88
2016-12-15T05:52:55.725Z,7.86
2016-12-15T05:53:55.696Z,7.85
2016-12-15T05:54:55.777Z,7.85
2016-12-15T05:55:55.806Z,7.84
2016-12-15T05:56:55.722Z,7.85
2016-12-15T05:57:55.735Z,7.91
2016-12-15T05:58:55.650Z,7.86
2016-12-15T05:59:55.868Z,7.81
2016-12-15T06:00:55.763Z,7.79
2016-12-15T06:01:55.735Z,7.81
2016-12-15T06:02:55.705Z,7.82
2016-12-15T06:03:55.713Z,7.92
2016-12-15T06:04:55.716Z,7.84
2016-12-15T06:05:55.687Z,7.76
2016-12-15T06:06:55.744Z,7.88
2016-12-15T06:07:55.761Z,7.76
2016-12-15T06:08:55.681Z,7.77
2016-12-15T06:09:55.912Z,7.77
2016-12-15T06:10:55.813Z,7.77
2016-12-15T06:11:55.870Z,7.77
2016-12-15T06:12:55.699Z,7.77
2016-12-15T06:13:55.726Z,7.74
2016-12-15T06:14:55.706Z,7.69
2016-12-15T06:15:55.808Z,7.67
2016-12-15T06:16:55.756Z,7.73
2016-12-15T06:17:55.884Z,7.71
2016-12-15T06:18:55.669Z,7.71
2016-12-15T06:19:55.696Z,7.74
2016-12-15T06:20:55.755Z,7.69
2016-12-15T06:21:55.896Z,7.67
2016-12-15T06:22:55.722Z,7.67
2016-12-15T06:23:55.759Z,7.77
2016-12-15T06:24:55.744Z,7.73
2016-12-15T06:25:57.295Z,7.71
2016-12-15T06:26:55.727Z,7.66
2016-12-15T06:27:55.784Z,7.73
2016-12-15T06:28:55.794Z,7.62
2016-12-15T06:29:55.833Z,7.77
2016-12-15T06:30:55.804Z,7.71
2016-12-15T06:31:55.801Z,7.71
2016-12-15T06:32:55.719Z,7.66
2016-12-15T06:33:55.774Z,7.76
2016-12-15T06:34:55.807Z,7.69
2016-12-15T06:35:55.842Z,7.71
2016-12-15T06:36:55.730Z,7.7
2016-12-15T06:37:55.843Z,7.74
2016-12-15T06:38:55.740Z,7.7
2016-12-15T06:39:55.914Z,7.67
2016-12-15T06:40:55.703Z,7.73
2016-12-15T06:41:56.021Z,7.77
2016-12-15T06:42:55.765Z,7.63
2016-12-15T06:43:55.801Z,7.66
2016-12-15T06:44:56.252Z,7.66
2016-12-15T06:45:55.815Z,7.7
2016-12-15T06:46:56.431Z,7.7
2016-12-15T06:47:55.752Z,7.7
2016-12-15T06:48:56.745Z,7.62
2016-12-15T06:49:56.485Z,7.74
2016-12-15T06:50:56.484Z,7.74
2016-12-15T06:51:55.941Z,7.67
2016-12-15T06:52:57.005Z,7.63
2016-12-15T06:53:56.506Z,7.71
2016-12-15T06:54:57.497Z,7.62
2016-12-15T06:55:56.832Z,7.7
2016-12-15T06:56:55.795Z,7.58
2016-12-15T06:57:55.787Z,7.63
2016-12-15T06:58:56.719Z,7.58
2016-12-15T06:59:55.864Z,7.6
2016-12-15T07:00:55.797Z,7.76
2016-12-15T07:01:55.812Z,7.74
2016-12-15T07:02:55.886Z,7.63
2016-12-15T07:03:55.844Z,7.7
2016-12-15T07:04:55.733Z,7.62
2016-12-15T07:05:55.876Z,7.6
2016-12-15T07:06:55.805Z,7.58
2016-12-15T07:07:55.799Z,7.7
2016-12-15T07:08:55.820Z,7.69
2016-12-15T07:09:55.849Z,7.73
2016-12-15T07:10:55.879Z,7.74
2016-12-15T07:11:55.822Z,7.69
2016-12-15T07:12:55.780Z,7.7
2016-12-15T07:13:55.841Z,7.71
2016-12-15T07:14:55.818Z,7.74
2016-12-15T07:15:55.805Z,7.6
2016-12-15T07:16:55.834Z,7.71
2016-12-15T07:17:55.981Z,7.71
2016-12-15T07:18:55.823Z,7.7
2016-12-15T07:19:55.902Z,7.63
2016-12-15T07:20:55.817Z,7.71
2016-12-15T07:21:55.900Z,7.63
2016-12-15T07:22:55.772Z,7.74
2016-12-15T07:27:23.912Z,7.73
2016-12-15T07:28:23.909Z,7.67
2016-12-15T07:29:23.697Z,7.73
2016-12-15T07:30:23.808Z,7.74
2016-12-15T07:31:23.882Z,7.71
2016-12-15T07:32:23.809Z,7.74
2016-12-15T07:33:23.799Z,7.73
2016-12-15T07:34:23.859Z,7.62
2016-12-15T07:35:23.898Z,7.69
2016-12-15T07:36:23.802Z,7.67
2016-12-15T07:37:24.051Z,7.7
2016-12-15T07:38:23.890Z,7.7
2016-12-15T07:39:23.939Z,7.73
2016-12-15T07:40:23.730Z,7.62
2016-12-15T07:41:23.890Z,7.7
2016-12-15T07:42:23.913Z,7.7
2016-12-15T07:43:23.858Z,7.6
2016-12-15T07:44:23.800Z,7.6
2016-12-15T07:45:23.735Z,7.67
2016-12-15T07:46:23.731Z,7.66
2016-12-15T07:47:23.839Z,7.58
2016-12-15T07:48:23.743Z,7.58
2016-12-15T07:49:23.880Z,7.66
2016-12-15T07:50:23.893Z,7.6
2016-12-15T07:51:23.862Z,7.58
2016-12-15T07:52:23.857Z,7.6
2016-12-15T07:53:23.865Z,7.58
2016-12-15T07:54:23.776Z,7.66
2016-12-15T07:55:23.775Z,7.63
2016-12-15T07:56:23.900Z,7.73
2016-12-15T07:57:23.972Z,7.67
2016-12-15T07:58:23.762Z,7.63
2016-12-15T07:59:23.783Z,7.6
2016-12-15T08:00:23.907Z,7.62
2016-12-15T08:01:23.920Z,7.69
2016-12-15T08:02:23.891Z,7.62
2016-12-15T08:03:23.982Z,7.71
2016-12-15T08:04:23.944Z,7.69
2016-12-15T08:05:23.952Z,7.73
2016-12-15T08:06:23.971Z,7.74
2016-12-15T08:07:23.872Z,7.71
2016-12-15T08:08:23.954Z,7.74
2016-12-15T08:09:23.831Z,7.7
2016-12-15T08:10:23.934Z,7.76
2016-12-15T08:11:23.867Z,7.73
2016-12-15T08:12:24.007Z,7.7
2016-12-15T08:13:23.822Z,7.73
2016-12-15T08:14:24.109Z,7.76
2016-12-15T08:15:23.884Z,7.79
2016-12-15T08:16:24.613Z,7.73
2016-12-15T08:17:23.900Z,7.77
2016-12-15T08:18:23.833Z,7.77
2016-12-15T08:19:23.883Z,7.73
2016-12-15T08:20:23.980Z,7.79
2016-12-15T08:21:23.922Z,7.77
2016-12-15T08:22:23.904Z,7.76
2016-12-15T08:23:23.870Z,7.77
2016-12-15T08:24:23.787Z,7.76
2016-12-15T08:25:23.843Z,7.82
2016-12-15T08:26:23.967Z,7.79
2016-12-15T08:27:23.922Z,7.74
2016-12-15T08:28:23.863Z,7.81
2016-12-15T08:29:23.973Z,7.86
2016-12-15T08:30:23.906Z,7.84
2016-12-15T08:31:24.053Z,7.85
2016-12-15T08:32:24.015Z,7.86
2016-12-15T08:33:23.839Z,7.92
2016-12-15T08:34:23.845Z,7.89
2016-12-15T08:35:23.985Z,7.92
2016-12-15T08:36:23.963Z,7.95
2016-12-15T08:37:24.014Z,7.88
2016-12-15T08:38:23.873Z,7.94
2016-12-15T08:39:23.937Z,7.94
2016-12-15T08:40:23.956Z,7.91
2016-12-15T08:41:23.833Z,7.92
2016-12-15T08:42:23.954Z,7.94
2016-12-15T08:43:23.985Z,7.99
2016-12-15T08:44:23.824Z,7.96
2016-12-15T08:45:24.013Z,7.96
2016-12-15T08:46:23.876Z,8.06
2016-12-15T08:47:23.932Z,8.04
2016-12-15T08:48:23.855Z,8.09
2016-12-15T08:49:23.884Z,8.07
2016-12-15T08:50:23.996Z,8.13
2016-12-15T08:51:23.806Z,8.12
2016-12-15T08:52:24.005Z,8.22
2016-12-15T08:53:23.853Z,8.13
2016-12-15T08:54:24.466Z,8.14
2016-12-15T08:55:23.855Z,8.18
2016-12-15T08:56:24.002Z,8.12
2016-12-15T08:57:24.569Z,8.24
2016-12-15T08:58:23.946Z,8.27
2016-12-15T08:59:23.866Z,8.28
2016-12-15T09:00:24.018Z,8.25
2016-12-15T09:01:23.964Z,8.24
2016-12-15T09:02:23.843Z,8.22
2016-12-15T09:03:23.982Z,8.22
2016-12-15T09:04:23.905Z,8.21
2016-12-15T09:05:24.002Z,8.25
2016-12-15T09:06:24.087Z,8.31
2016-12-15T09:07:23.919Z,8.36
2016-12-15T09:08:24.029Z,8.39
2016-12-15T09:09:24.020Z,8.43
2016-12-15T09:10:23.958Z,8.37
2016-12-15T09:11:24.063Z,8.46
2016-12-15T09:12:23.964Z,8.46
2016-12-15T09:13:24.224Z,8.47
2016-12-15T09:14:23.980Z,8.46
2016-12-15T09:15:23.956Z,8.46
2016-12-15T09:16:23.953Z,8.43
2016-12-15T09:17:24.036Z,8.52
2016-12-15T09:18:24.008Z,8.43
2016-12-15T09:19:23.946Z,8.46
2016-12-15T09:20:23.958Z,8.54
2016-12-15T09:21:23.947Z,8.57
2016-12-15T09:22:24.133Z,8.57
2016-12-15T09:23:24.122Z,8.6
2016-12-15T09:24:23.991Z,8.6
2016-12-15T09:25:24.041Z,8.57
2016-12-15T09:26:24.141Z,8.55
2016-12-15T09:27:23.919Z,8.68
2016-12-15T09:28:24.042Z,8.68
2016-12-15T09:29:23.857Z,8.65
2016-12-15T09:30:23.901Z,8.73
2016-12-15T09:31:24.087Z,8.71
2016-12-15T09:32:24.178Z,8.73
2016-12-15T09:33:23.959Z,8.82
2016-12-15T09:34:23.923Z,8.76
2016-12-15T09:35:24.057Z,8.73
2016-12-15T09:36:23.951Z,8.78
2016-12-15T09:37:24.023Z,8.78
2016-12-15T09:38:24.111Z,8.79
2016-12-15T09:39:24.030Z,8.83
2016-12-15T09:40:24.016Z,8.83
2016-12-15T09:41:24.221Z,8.94
2016-12-15T09:42:24.180Z,8.97
2016-12-15T09:43:23.990Z,8.98
2016-12-15T09:44:23.988Z,8.96
2016-12-15T09:45:24.005Z,9
2016-12-15T09:46:24.088Z,9.04
2016-12-15T09:47:24.072Z,9
2016-12-15T09:48:24.320Z,9.04
2016-12-15T09:49:24.121Z,9.1
2016-12-15T09:50:24.020Z,9.13
2016-12-15T09:51:23.992Z,9.16
2016-12-15T09:52:24.089Z,9.15
2016-12-15T09:53:24.128Z,9.16
2016-12-15T09:54:24.231Z,9.13
2016-12-15T09:55:24.193Z,9.1
2016-12-15T09:56:24.037Z,9.12
2016-12-15T09:57:24.090Z,9.08
2016-12-15T09:58:23.967Z,9.12
2016-12-15T09:59:24.072Z,9.15
2016-12-15T10:00:23.955Z,9.1
2016-12-15T10:01:24.580Z,9.1
2016-12-15T10:02:24.166Z,9.15
2016-12-15T10:03:24.187Z,9.19
2016-12-15T10:04:24.026Z,9.17
2016-12-15T10:05:23.967Z,9.1
2016-12-15T10:06:24.432Z,9.22
2016-12-15T10:07:23.982Z,9.16
2016-12-15T10:08:24.022Z,9.26
2016-12-15T10:09:23.982Z,9.27
2016-12-15T10:10:24.006Z,9.34
2016-12-15T10:11:24.250Z,9.3
2016-12-15T10:12:24.167Z,9.3
2016-12-15T10:13:24.119Z,9.3
2016-12-15T10:14:24.030Z,9.37
2016-12-15T10:15:24.001Z,9.35
2016-12-15T10:16:24.047Z,9.32
2016-12-15T10:17:24.021Z,9.41
2016-12-15T10:18:24.182Z,9.44
2016-12-15T10:19:23.946Z,9.53
2016-12-15T10:20:24.044Z,9.45
2016-12-15T10:21:24.005Z,9.5
2016-12-15T10:22:24.122Z,9.5
2016-12-15T10:23:24.013Z,9.49
2016-12-15T10:24:24.192Z,9.48
2016-12-15T10:25:24.121Z,9.41
2016-12-15T10:26:24.264Z,9.62
2016-12-15T10:27:24.119Z,9.55
2016-12-15T10:28:24.031Z,9.59
2016-12-15T10:29:24.100Z,9.59
2016-12-15T10:30:24.313Z,9.56
2016-12-15T10:31:23.988Z,9.59
2016-12-15T10:32:24.393Z,9.63
2016-12-15T10:33:24.231Z,9.56
2016-12-15T10:34:24.516Z,9.78
2016-12-15T10:35:24.329Z,9.63
2016-12-15T10:36:24.808Z,9.77
2016-12-15T10:37:24.277Z,9.67
2016-12-15T10:38:24.263Z,9.78
2016-12-15T10:39:24.161Z,9.81
2016-12-15T10:40:24.279Z,9.92
2016-12-15T10:41:24.175Z,9.86
2016-12-15T10:42:24.271Z,9.92
2016-12-15T10:43:24.109Z,10.02
2016-12-15T10:44:24.162Z,9.88
2016-12-15T10:45:24.211Z,10.01
2016-12-15T10:46:24.141Z,9.98
2016-12-15T10:47:24.306Z,9.93
2016-12-15T10:48:24.111Z,10.04
2016-12-15T10:49:24.216Z,10.13
2016-12-15T10:50:24.545Z,10.11
2016-12-15T10:51:24.444Z,10.1
2016-12-15T10:52:24.130Z,10.29
2016-12-15T10:53:24.287Z,10.18
2016-12-15T10:54:24.095Z,10.22
2016-12-15T10:55:24.224Z,10.17
2016-12-15T10:56:24.109Z,10.24
2016-12-15T10:57:24.184Z,10.31
2016-12-15T10:58:24.252Z,10.29
2016-12-15T10:59:24.151Z,10.28
2016-12-15T11:00:24.463Z,10.29
2016-12-15T11:01:24.242Z,10.32
2016-12-15T11:02:24.436Z,10.25
2016-12-15T11:03:24.774Z,10.31
2016-12-15T11:04:24.453Z,10.22
2016-12-15T11:05:24.822Z,10.32
2016-12-15T11:06:24.284Z,10.18
2016-12-15T11:07:24.181Z,10.22
2016-12-15T11:08:24.278Z,10.28
2016-12-15T11:09:24.214Z,10.17
2016-12-15T11:10:24.182Z,10.24
2016-12-15T11:11:24.300Z,10.14
2016-12-15T11:12:24.407Z,10.18
2016-12-15T11:13:24.291Z,10.1
2016-12-15T11:14:24.597Z,10.24
2016-12-15T11:15:24.222Z,10.17
2016-12-15T11:16:24.280Z,10.16
2016-12-15T11:17:24.199Z,10.16
2016-12-15T11:18:24.218Z,10.25
2016-12-15T11:19:24.132Z,10.22
2016-12-15T11:20:24.232Z,10.25
2016-12-15T11:21:24.085Z,10.2
2016-12-15T11:22:24.471Z,10.17
2016-12-15T11:23:24.207Z,10.22
2016-12-15T11:24:24.092Z,10.29
2016-12-15T11:25:24.183Z,10.1
2016-12-15T11:26:24.138Z,10.13
2016-12-15T11:27:24.112Z,10.11
2016-12-15T11:28:24.258Z,10.07
2016-12-15T11:29:24.102Z,10.16
2016-12-15T11:30:24.230Z,10.14
2016-12-15T11:31:24.179Z,10.16
2016-12-15T11:32:24.080Z,10.04
2016-12-15T11:33:24.159Z,10.06
2016-12-15T11:34:24.151Z,10.09
2016-12-15T11:35:24.207Z,10.04
2016-12-15T11:36:24.259Z,10.1
2016-12-15T11:37:24.189Z,10.25
2016-12-15T11:38:24.198Z,10.22
2016-12-15T11:39:24.239Z,10.22
2016-12-15T11:40:24.332Z,10.17
2016-12-15T11:41:24.240Z,10.24
2016-12-15T11:42:24.351Z,10.31
2016-12-15T11:43:24.200Z,10.26
2016-12-15T11:44:24.401Z,10.31
2016-12-15T11:45:24.166Z,10.34
2016-12-15T11:46:24.299Z,10.28
2016-12-15T11:47:24.222Z,10.17
2016-12-15T11:48:24.351Z,10.28
2016-12-15T11:49:24.153Z,10.25
2016-12-15T11:50:24.336Z,10.26
2016-12-15T11:51:24.250Z,10.34
2016-12-15T11:52:24.253Z,10.34
2016-12-15T11:53:24.239Z,10.38
2016-12-15T11:54:24.351Z,10.49
2016-12-15T11:55:24.262Z,10.49
2016-12-15T11:56:24.386Z,10.52
2016-12-15T11:57:24.221Z,10.54
2016-12-15T11:58:24.193Z,10.63
2016-12-15T11:59:24.177Z,10.58
2016-12-15T12:00:24.249Z,10.47
2016-12-15T12:01:24.290Z,10.58
2016-12-15T12:02:24.409Z,10.47
2016-12-15T12:03:24.230Z,10.51
2016-12-15T12:04:24.333Z,10.54
2016-12-15T12:05:24.158Z,10.55
2016-12-15T12:06:24.139Z,10.58
2016-12-15T12:07:24.238Z,10.62
2016-12-15T12:08:24.217Z,10.51
2016-12-15T12:09:24.200Z,10.39
2016-12-15T12:10:24.226Z,10.43
2016-12-15T12:11:24.258Z,10.36
2016-12-15T12:12:24.261Z,10.42
2016-12-15T12:13:24.282Z,10.25
2016-12-15T12:14:24.175Z,10.31
2016-12-15T12:15:24.272Z,10.25
2016-12-15T12:16:24.347Z,10.28
2016-12-15T12:17:24.267Z,10.24
2016-12-15T12:18:24.269Z,10.29
2016-12-15T12:19:24.344Z,10.35
2016-12-15T12:20:24.254Z,10.28
2016-12-15T12:21:24.263Z,10.25
2016-12-15T12:22:24.316Z,10.25
2016-12-15T12:23:24.196Z,10.25
2016-12-15T12:24:24.294Z,10.2
2016-12-15T12:25:24.313Z,10.25
2016-12-15T12:26:24.364Z,10.26
2016-12-15T12:27:24.305Z,10.24
2016-12-15T12:28:24.259Z,10.34
2016-12-15T12:29:24.149Z,10.24
2016-12-15T12:30:24.228Z,10.24
2016-12-15T12:31:24.229Z,10.26
2016-12-15T12:32:24.145Z,10.28
2016-12-15T12:33:24.170Z,10.35
2016-12-15T12:34:24.253Z,10.34
2016-12-15T12:35:24.217Z,10.35
2016-12-15T12:36:24.355Z,10.26
2016-12-15T12:37:24.237Z,10.26
2016-12-15T12:38:24.172Z,10.24
2016-12-15T12:39:24.208Z,10.24
2016-12-15T12:40:24.248Z,10.14
2016-12-15T12:41:24.175Z,10.28
2016-12-15T12:42:24.215Z,10.34
2016-12-15T12:43:24.240Z,10.29
2016-12-15T12:44:24.182Z,10.32
2016-12-15T12:45:24.284Z,10.43
2016-12-15T12:46:24.224Z,10.49
2016-12-15T12:47:24.234Z,10.54
2016-12-15T12:48:24.240Z,10.51
2016-12-15T12:49:24.144Z,10.43
2016-12-15T12:50:24.297Z,10.46
2016-12-15T12:51:24.214Z,10.57
2016-12-15T12:52:24.393Z,10.66
2016-12-15T12:53:24.424Z,10.66
2016-12-15T12:54:24.399Z,10.63
2016-12-15T12:55:24.484Z,10.72
2016-12-15T12:56:24.442Z,10.66
2016-12-15T12:57:24.307Z,10.72
2016-12-15T12:58:24.395Z,10.72
2016-12-15T12:59:24.260Z,10.87
2016-12-15T13:00:24.287Z,10.7
2016-12-15T13:01:25.548Z,10.76
2016-12-15T13:02:24.466Z,10.73
2016-12-15T13:03:24.308Z,10.68
2016-12-15T13:04:24.244Z,10.66
2016-12-15T13:05:24.246Z,10.72
2016-12-15T13:06:24.368Z,10.86
2016-12-15T13:07:24.354Z,10.83
2016-12-15T13:08:24.357Z,10.72
2016-12-15T13:09:24.332Z,10.73
2016-12-15T13:10:24.374Z,10.72
2016-12-15T13:11:24.524Z,10.78
2016-12-15T13:12:24.276Z,10.8
2016-12-15T13:13:24.258Z,10.84
2016-12-15T13:14:24.296Z,10.69
2016-12-15T13:15:25.023Z,10.72
2016-12-15T13:16:24.302Z,10.68
2016-12-15T13:17:24.477Z,10.8
2016-12-15T13:18:24.239Z,10.72
2016-12-15T13:19:24.341Z,10.84